Time;durP1;ratioP1;P1;durP2;ratioP2;P2;SDS_P1;SDS_P2;PMS_P1;PMS_P2;Temp;Humidity;BMP_temperature;BMP_pressure;BME280_temperature;BME280_humidity;BME280_pressure;Samples;Min_cycle;Max_cycle;Signal;HPM_P1;HPM_P2
2022/08/19 00:01:21;;;;;;;16.13;14.83;;;21.70;1.00;;;;;;5033997;28;20492;-82
2022/08/19 00:03:48;;;;;;;15.90;14.60;;;21.70;1.00;;;;;;5034699;28;20465;-83
2022/08/19 00:06:16;;;;;;;15.17;13.83;;;21.70;1.00;;;;;;5034460;28;20468;-82
2022/08/19 00:08:43;;;;;;;16.60;15.20;;;21.70;1.00;;;;;;5029285;28;20473;-82
2022/08/19 00:11:12;;;;;;;16.83;15.33;;;21.70;1.00;;;;;;5017969;28;20883;-82
2022/08/19 00:13:39;;;;;;;16.63;15.20;;;21.70;1.00;;;;;;5036577;28;20643;-82
2022/08/19 00:16:06;;;;;;;16.17;14.77;;;21.70;1.00;;;;;;5035192;28;20454;-82
2022/08/19 00:18:34;;;;;;;18.63;17.03;;;21.70;1.00;;;;;;5039395;28;20485;-81
2022/08/19 00:21:01;;;;;;;16.43;15.13;;;21.60;1.00;;;;;;5034354;28;20457;-82
2022/08/19 00:23:29;;;;;;;17.63;16.07;;;21.70;1.00;;;;;;5042116;28;20436;-82
2022/08/19 00:25:56;;;;;;;17.53;16.00;;;21.70;1.00;;;;;;5031290;28;20477;-82
2022/08/19 00:28:24;;;;;;;17.73;16.23;;;21.70;1.00;;;;;;5035862;28;20460;-82
2022/08/19 00:30:52;;;;;;;19.40;17.90;;;21.80;1.00;;;;;;5033318;28;20916;-81
2022/08/19 00:33:20;;;;;;;18.20;16.53;;;21.80;1.00;;;;;;5032829;28;21313;-83
2022/08/19 00:35:46;;;;;;;16.93;15.53;;;21.80;1.00;;;;;;5032269;28;20476;-82
2022/08/19 00:38:14;;;;;;;18.03;16.43;;;21.90;1.00;;;;;;5032844;28;20991;-82
2022/08/19 00:40:43;;;;;;;18.60;17.00;;;21.90;1.00;;;;;;5035247;28;20445;-82
2022/08/19 00:43:13;;;;;;;20.03;18.03;;;21.80;1.00;;;;;;5036713;28;20499;-81
2022/08/19 00:45:43;;;;;;;19.70;17.77;;;21.80;1.00;;;;;;5036513;28;20462;-82
2022/08/19 00:48:10;;;;;;;20.47;18.20;;;21.60;1.00;;;;;;5035485;28;20473;-82
2022/08/19 00:50:40;;;;;;;20.30;18.60;;;21.50;1.00;;;;;;5032771;28;20453;-81
2022/08/19 00:53:09;;;;;;;22.17;19.97;;;21.40;1.00;;;;;;5035209;28;20492;-82
2022/08/19 00:55:38;;;;;;;20.37;18.47;;;21.30;1.00;;;;;;5037705;28;20465;-82
2022/08/19 00:58:09;;;;;;;20.90;19.13;;;21.30;1.00;;;;;;5030245;28;20504;-83
2022/08/19 01:00:37;;;;;;;21.87;19.97;;;21.30;1.00;;;;;;5032810;28;20477;-82
2022/08/19 01:03:07;;;;;;;21.80;19.80;;;21.30;1.00;;;;;;5031303;28;20453;-82
2022/08/19 01:05:36;;;;;;;19.90;18.20;;;21.30;1.00;;;;;;5033667;28;20894;-82
2022/08/19 01:08:06;;;;;;;20.30;18.37;;;21.30;1.00;;;;;;5033702;28;20536;-82
2022/08/19 01:10:38;;;;;;;20.93;19.03;;;21.30;1.00;;;;;;5032962;28;20457;-82
2022/08/19 01:13:06;;;;;;;20.70;19.00;;;21.30;1.00;;;;;;5026787;28;20485;-82
2022/08/19 01:15:35;;;;;;;20.73;18.93;;;21.30;1.00;;;;;;5034716;28;20457;-82
2022/08/19 01:18:07;;;;;;;20.93;19.13;;;21.20;1.00;;;;;;5030126;28;20504;-82
2022/08/19 01:20:34;;;;;;;21.20;19.07;;;21.30;1.00;;;;;;5033651;28;20493;-82
2022/08/19 01:23:03;;;;;;;20.60;18.80;;;21.20;1.00;;;;;;5030917;28;21204;-82
2022/08/19 01:25:35;;;;;;;21.80;19.70;;;21.20;1.00;;;;;;5033607;28;20570;-82
2022/08/19 01:28:02;;;;;;;22.70;20.80;;;21.20;1.00;;;;;;5030717;28;20469;-82
2022/08/19 01:30:32;;;;;;;22.60;20.50;;;21.20;1.00;;;;;;5036632;28;20431;-81
2022/08/19 01:33:00;;;;;;;22.83;20.60;;;21.10;1.00;;;;;;5030956;28;20465;-82
2022/08/19 01:35:31;;;;;;;23.93;21.23;;;21.10;1.00;;;;;;5035123;28;20461;-82
2022/08/19 01:38:00;;;;;;;23.57;21.57;;;21.10;1.00;;;;;;5033129;28;20479;-83
2022/08/19 01:40:32;;;;;;;23.63;21.23;;;21.10;1.00;;;;;;5036861;28;20445;-83
2022/08/19 01:42:59;;;;;;;21.47;19.67;;;21.10;1.00;;;;;;5034758;28;20502;-83
2022/08/19 01:45:29;;;;;;;23.47;21.40;;;21.10;1.00;;;;;;5030353;28;20457;-83
2022/08/19 01:47:57;;;;;;;22.97;21.07;;;21.10;1.00;;;;;;5033933;28;20448;-83
2022/08/19 01:50:24;;;;;;;21.93;20.00;;;21.10;1.00;;;;;;5033473;28;20908;-84
2022/08/19 01:52:53;;;;;;;21.57;19.73;;;21.10;1.00;;;;;;5033832;28;20461;-83
2022/08/19 01:55:24;;;;;;;23.20;21.20;;;21.00;1.00;;;;;;5034015;28;21337;-84
2022/08/19 01:57:56;;;;;;;23.13;21.10;;;21.00;1.00;;;;;;5033663;28;20481;-83
2022/08/19 02:00:27;;;;;;;23.30;21.17;;;21.00;1.00;;;;;;5032772;28;21426;-83
2022/08/19 02:02:54;;;;;;;22.30;20.37;;;20.90;1.00;;;;;;5033370;28;20547;-83
2022/08/19 02:05:22;;;;;;;20.57;18.57;;;20.80;1.00;;;;;;5031420;28;20468;-84
2022/08/19 02:07:50;;;;;;;21.30;19.30;;;20.70;1.00;;;;;;5031561;28;21106;-83
2022/08/19 02:10:20;;;;;;;19.73;17.80;;;20.70;1.00;;;;;;5035823;28;20477;-84
2022/08/19 02:12:49;;;;;;;17.67;16.17;;;20.60;1.00;;;;;;5032071;28;20457;-83
2022/08/19 02:15:18;;;;;;;19.77;18.07;;;20.50;1.00;;;;;;5031344;28;20483;-83
2022/08/19 02:17:46;;;;;;;19.80;17.90;;;20.50;1.00;;;;;;5031732;28;20539;-84
2022/08/19 02:20:13;;;;;;;20.93;19.23;;;20.50;1.00;;;;;;5030581;28;20492;-82
2022/08/19 02:22:42;;;;;;;20.37;18.47;;;20.40;1.00;;;;;;5035035;28;20457;-82
2022/08/19 02:25:10;;;;;;;20.63;18.73;;;20.40;1.00;;;;;;5032400;28;21025;-82
2022/08/19 02:27:37;;;;;;;21.60;19.60;;;20.40;1.00;;;;;;5033044;28;20556;-83
2022/08/19 02:30:06;;;;;;;21.57;19.67;;;20.40;1.00;;;;;;5033936;28;20484;-83
2022/08/19 02:32:34;;;;;;;19.50;17.80;;;20.50;1.00;;;;;;5032921;28;20973;-83
2022/08/19 02:35:01;;;;;;;20.90;19.00;;;20.40;1.00;;;;;;5031629;28;20489;-83
2022/08/19 02:40:13;;;;;;;20.67;18.87;;;20.40;1.00;;;;;;5032703;28;20453;-82
2022/08/19 02:42:41;;;;;;;21.27;19.47;;;20.50;1.00;;;;;;5034506;28;20478;-82
2022/08/19 02:45:09;;;;;;;21.87;19.87;;;20.60;1.00;;;;;;5031542;28;20417;-83
2022/08/19 02:47:37;;;;;;;20.93;19.03;;;20.60;1.00;;;;;;5037602;28;20482;-83
2022/08/19 02:50:05;;;;;;;23.90;21.67;;;20.60;1.00;;;;;;5030993;28;20552;-83
2022/08/19 02:52:33;;;;;;;23.17;21.07;;;20.70;1.00;;;;;;5031833;28;20440;-82
2022/08/19 02:55:00;;;;;;;24.57;21.97;;;20.70;1.00;;;;;;5028877;28;20540;-82
2022/08/19 02:57:28;;;;;;;23.70;21.60;;;20.70;1.00;;;;;;5028955;28;20433;-82
2022/08/19 02:59:55;;;;;;;22.47;20.57;;;20.70;1.00;;;;;;5031424;28;20493;-83
2022/08/19 03:02:22;;;;;;;23.60;21.60;;;20.70;1.00;;;;;;5030367;28;20436;-82
2022/08/19 03:04:50;;;;;;;22.13;20.13;;;20.70;1.00;;;;;;5027547;28;20471;-83
2022/08/19 03:07:18;;;;;;;23.23;21.33;;;20.70;1.00;;;;;;5024070;28;21528;-82
2022/08/19 03:09:46;;;;;;;23.90;21.70;;;20.70;1.00;;;;;;5031239;28;20463;-83
2022/08/19 03:12:13;;;;;;;23.53;21.30;;;20.70;1.00;;;;;;5024182;28;20558;-82
2022/08/19 03:14:39;;;;;;;23.47;21.37;;;20.70;1.00;;;;;;5030351;28;20519;-82
2022/08/19 03:17:07;;;;;;;21.60;19.73;;;20.70;1.00;;;;;;5031104;28;20476;-82
2022/08/19 03:19:35;;;;;;;23.47;21.30;;;20.70;1.00;;;;;;5032953;28;20437;-82
2022/08/19 03:22:03;;;;;;;20.90;19.10;;;20.60;1.00;;;;;;5032948;28;20469;-82
2022/08/19 03:24:31;;;;;;;21.70;19.80;;;20.60;1.00;;;;;;5032485;28;20454;-82
2022/08/19 03:26:58;;;;;;;20.00;18.40;;;20.60;1.00;;;;;;5029062;28;20481;-83
2022/08/19 03:29:26;;;;;;;21.40;19.60;;;20.60;1.00;;;;;;5036055;28;20461;-81
2022/08/19 03:31:54;;;;;;;21.17;19.37;;;20.60;1.00;;;;;;5040125;28;20484;-82
2022/08/19 03:34:26;;;;;;;20.50;18.70;;;20.60;1.00;;;;;;5035515;28;20531;-82
2022/08/19 03:36:54;;;;;;;21.30;19.50;;;20.50;1.00;;;;;;5034512;28;20670;-82
2022/08/19 03:39:24;;;;;;;22.07;20.17;;;20.50;1.00;;;;;;5034651;28;20460;-82
2022/08/19 03:41:52;;;;;;;21.93;19.83;;;20.50;1.00;;;;;;5033409;28;20456;-82
2022/08/19 03:44:22;;;;;;;20.37;18.67;;;20.50;1.00;;;;;;5036908;28;20461;-84
2022/08/19 03:46:51;;;;;;;19.60;17.90;;;20.40;1.00;;;;;;5033251;28;20423;-83
2022/08/19 03:49:18;;;;;;;21.20;19.40;;;20.40;1.00;;;;;;5034463;28;20457;-82
2022/08/19 03:51:46;;;;;;;19.00;17.40;;;20.40;1.00;;;;;;5033954;28;20556;-81
2022/08/19 03:54:17;;;;;;;21.00;19.20;;;20.40;1.00;;;;;;5034736;28;20491;-82
2022/08/19 03:56:49;;;;;;;19.97;18.37;;;20.40;1.00;;;;;;5034950;28;20501;-82
2022/08/19 03:59:18;;;;;;;18.97;17.27;;;20.40;1.00;;;;;;5030926;28;20461;-82
2022/08/19 04:01:45;;;;;;;20.83;19.03;;;20.40;1.00;;;;;;5029076;28;20449;-82
2022/08/19 04:04:12;;;;;;;22.20;20.30;;;20.40;1.00;;;;;;5026434;28;20493;-82
2022/08/19 04:06:40;;;;;;;20.47;18.57;;;20.40;1.00;;;;;;5036334;28;20480;-82
2022/08/19 04:09:09;;;;;;;20.40;18.70;;;20.40;1.00;;;;;;5033688;28;20459;-81
2022/08/19 04:11:41;;;;;;;22.03;20.10;;;20.40;1.00;;;;;;5035988;28;20469;-81
2022/08/19 04:14:10;;;;;;;22.33;20.23;;;20.50;1.00;;;;;;5029208;28;20484;-82
2022/08/19 04:16:37;;;;;;;22.10;20.17;;;20.50;1.00;;;;;;5030544;28;20941;-82
2022/08/19 04:19:07;;;;;;;22.07;20.27;;;20.50;1.00;;;;;;5033712;28;20530;-82
2022/08/19 04:21:34;;;;;;;21.77;19.97;;;20.50;1.00;;;;;;5030607;28;20471;-82
2022/08/19 04:24:02;;;;;;;22.17;20.20;;;20.50;1.00;;;;;;5030627;28;20453;-82
2022/08/19 04:26:33;;;;;;;21.60;19.80;;;20.50;1.00;;;;;;5034254;28;20487;-82
2022/08/19 04:29:00;;;;;;;23.27;21.27;;;20.50;1.00;;;;;;5031045;28;20890;-82
2022/08/19 04:31:33;;;;;;;22.23;20.40;;;20.50;1.00;;;;;;5030254;28;20974;-83
2022/08/19 04:34:02;;;;;;;22.73;20.73;;;20.50;1.00;;;;;;5033932;28;20480;-82
2022/08/19 04:36:31;;;;;;;24.73;22.63;;;20.60;1.00;;;;;;5033784;28;20425;-83
2022/08/19 04:38:59;;;;;;;23.50;21.40;;;20.60;1.00;;;;;;5031781;28;20421;-82
2022/08/19 04:44:11;;;;;;;25.47;23.17;;;20.60;1.00;;;;;;5031816;28;20433;-79
2022/08/19 04:46:40;;;;;;;23.87;21.70;;;20.60;1.00;;;;;;5027049;28;20484;-80
2022/08/19 04:49:08;;;;;;;22.30;20.30;;;20.60;1.00;;;;;;5021166;28;20481;-75
2022/08/19 04:51:36;;;;;;;21.50;19.50;;;20.70;1.00;;;;;;5022144;28;20611;-73
2022/08/19 04:54:04;;;;;;;21.63;19.70;;;20.70;1.00;;;;;;5017983;28;20863;-74
2022/08/19 04:56:33;;;;;;;21.00;19.10;;;20.70;1.00;;;;;;5025280;28;21003;-76
2022/08/19 04:59:03;;;;;;;21.63;19.70;;;20.80;1.00;;;;;;5025566;28;20469;-74
2022/08/19 05:01:31;;;;;;;24.20;22.17;;;20.80;1.00;;;;;;5021983;28;21004;-73
2022/08/19 05:04:01;;;;;;;22.47;20.47;;;20.80;1.00;;;;;;5025902;28;21074;-73
2022/08/19 05:06:32;;;;;;;21.77;19.97;;;20.90;1.00;;;;;;5023488;28;20496;-73
2022/08/19 05:09:00;;;;;;;21.83;19.93;;;20.80;1.00;;;;;;5023369;28;20505;-73
2022/08/19 05:11:29;;;;;;;22.53;20.70;;;20.80;1.00;;;;;;5024454;28;20465;-75
2022/08/19 05:13:57;;;;;;;23.53;21.60;;;20.90;1.00;;;;;;5021729;28;20978;-74
2022/08/19 05:16:26;;;;;;;21.50;19.70;;;21.00;1.00;;;;;;5026071;28;20551;-74
2022/08/19 05:24:25;;;;;;;25.70;23.40;;;21.00;1.00;;;;;;5023729;28;20461;-73
2022/08/19 05:26:56;;;;;;;21.47;19.67;;;21.10;1.00;;;;;;5023222;28;20989;-75
2022/08/19 05:29:24;;;;;;;21.80;20.00;;;21.20;1.00;;;;;;5021552;28;20606;-74
2022/08/19 05:31:53;;;;;;;21.70;19.80;;;21.30;1.00;;;;;;5024539;28;20470;-79
2022/08/19 05:34:22;;;;;;;20.70;18.57;;;21.40;1.00;;;;;;5026977;28;20464;-74
2022/08/19 05:36:56;;;;;;;20.00;18.40;;;21.50;1.00;;;;;;5025083;28;20475;-72
2022/08/19 05:39:25;;;;;;;18.33;16.53;;;21.60;1.00;;;;;;5020753;28;20881;-72
2022/08/19 05:41:56;;;;;;;18.00;16.40;;;21.90;1.00;;;;;;5025122;28;20475;-72
2022/08/19 05:44:24;;;;;;;18.00;16.47;;;22.00;1.00;;;;;;5022628;28;20516;-72
2022/08/19 05:46:53;;;;;;;16.10;14.70;;;22.20;1.00;;;;;;5025294;28;20484;-72
2022/08/19 05:49:22;;;;;;;17.80;16.20;;;22.30;1.00;;;;;;5022248;28;20921;-72
2022/08/19 05:51:50;;;;;;;17.00;15.50;;;22.50;1.00;;;;;;5016376;28;20580;-71
2022/08/19 05:54:17;;;;;;;16.73;15.33;;;22.60;1.00;;;;;;5019323;28;20984;-73
2022/08/19 05:56:47;;;;;;;17.40;15.73;;;22.70;1.00;;;;;;5021593;28;20476;-72
2022/08/19 05:59:14;;;;;;;18.07;16.07;;;22.80;1.00;;;;;;5020898;28;20453;-72
2022/08/19 06:01:44;;;;;;;17.23;15.67;;;22.80;1.00;;;;;;5019816;28;21379;-73
2022/08/19 06:04:11;;;;;;;17.67;16.03;;;22.90;1.00;;;;;;5019150;28;20449;-72
2022/08/19 06:06:38;;;;;;;16.50;14.90;;;22.90;1.00;;;;;;5019406;28;20478;-71
2022/08/19 06:09:09;;;;;;;17.90;16.00;;;23.00;1.00;;;;;;5005702;28;20511;-71
2022/08/19 06:11:40;;;;;;;17.60;16.10;;;23.00;1.00;;;;;;5014832;28;20505;-72
2022/08/19 06:14:13;;;;;;;18.53;16.83;;;23.00;1.00;;;;;;5023802;28;20879;-71
2022/08/19 06:16:41;;;;;;;19.63;17.93;;;23.10;1.00;;;;;;5020825;28;20481;-72
2022/08/19 06:19:11;;;;;;;19.50;17.80;;;23.10;1.00;;;;;;5021333;28;20453;-71
2022/08/19 06:21:42;;;;;;;19.83;18.17;;;23.20;1.00;;;;;;5018577;28;20635;-73
2022/08/19 06:24:12;;;;;;;17.67;16.17;;;23.30;1.00;;;;;;5019680;28;20465;-72
2022/08/19 06:26:42;;;;;;;18.40;16.70;;;23.30;1.00;;;;;;5020861;28;21106;-72
2022/08/19 06:29:11;;;;;;;19.00;17.13;;;23.40;1.00;;;;;;5015033;28;20441;-72
2022/08/19 06:31:41;;;;;;;20.23;18.33;;;23.40;1.00;;;;;;5012968;28;20552;-71
2022/08/19 06:34:08;;;;;;;20.77;19.00;;;23.50;1.00;;;;;;5016479;28;20457;-78
2022/08/19 06:36:38;;;;;;;18.97;17.40;;;23.60;1.00;;;;;;5020416;28;20560;-78
2022/08/19 06:39:06;;;;;;;19.60;17.93;;;23.60;1.00;;;;;;5022092;28;20824;-78
2022/08/19 06:41:37;;;;;;;20.80;18.60;;;23.60;1.00;;;;;;5022595;28;20483;-79
2022/08/19 06:44:05;;;;;;;21.87;19.90;;;23.60;1.00;;;;;;5021840;28;20445;-78
2022/08/19 06:46:32;;;;;;;21.23;19.10;;;23.70;1.00;;;;;;5025416;28;20466;-79
2022/08/19 06:49:00;;;;;;;20.63;18.63;;;23.70;1.00;;;;;;5012959;28;20457;-79
2022/08/19 06:51:31;;;;;;;20.70;18.80;;;23.80;1.00;;;;;;5033577;28;20465;-79
2022/08/19 06:53:59;;;;;;;20.87;18.97;;;23.90;1.00;;;;;;5018107;28;20480;-79
2022/08/19 06:56:31;;;;;;;20.27;18.47;;;23.90;1.00;;;;;;5020794;28;20607;-78
2022/08/19 06:59:00;;;;;;;20.77;19.03;;;23.90;1.00;;;;;;5020364;28;20457;-78
2022/08/19 07:01:27;;;;;;;19.07;17.40;;;23.90;1.00;;;;;;5019941;28;20525;-78
2022/08/19 07:03:54;;;;;;;21.00;19.10;;;23.90;1.00;;;;;;5026591;28;20466;-79
2022/08/19 07:06:21;;;;;;;21.40;19.30;;;23.90;1.00;;;;;;5028533;28;20495;-78
2022/08/19 07:08:50;;;;;;;21.00;19.27;;;24.00;1.00;;;;;;5029865;28;20457;-79
2022/08/19 07:11:19;;;;;;;21.93;19.70;;;24.00;1.00;;;;;;5026879;28;20571;-79
2022/08/19 07:13:48;;;;;;;22.03;19.73;;;24.00;1.00;;;;;;5028728;28;21249;-79
2022/08/19 07:16:19;;;;;;;21.60;19.43;;;24.00;1.00;;;;;;5028817;28;21346;-79
2022/08/19 07:18:46;;;;;;;20.87;19.07;;;24.00;1.00;;;;;;5030045;28;20414;-79
2022/08/19 07:21:17;;;;;;;21.90;19.80;;;24.10;1.00;;;;;;5033828;28;20916;-79
2022/08/19 07:23:44;;;;;;;22.77;20.67;;;24.20;1.00;;;;;;5027678;28;20551;-79
2022/08/19 07:26:14;;;;;;;24.50;22.07;;;24.30;1.00;;;;;;5029158;28;20425;-79
2022/08/19 07:28:43;;;;;;;21.37;19.47;;;24.40;1.00;;;;;;5029055;28;20472;-79
2022/08/19 07:31:12;;;;;;;23.50;21.27;;;24.50;1.00;;;;;;5029037;28;20465;-78
2022/08/19 07:33:42;;;;;;;23.73;21.60;;;24.50;1.00;;;;;;5028761;28;20461;-77
2022/08/19 07:36:12;;;;;;;23.87;21.30;;;24.50;1.00;;;;;;5026779;28;20473;-78
2022/08/19 07:38:41;;;;;;;21.20;19.03;;;24.60;1.00;;;;;;5029210;28;20491;-78
2022/08/19 07:41:10;;;;;;;22.57;20.57;;;24.70;1.00;;;;;;5031085;28;20833;-79
2022/08/19 07:43:38;;;;;;;22.77;20.67;;;24.70;1.00;;;;;;5025374;28;20469;-77
2022/08/19 07:46:05;;;;;;;23.73;21.20;;;24.60;1.00;;;;;;5021479;28;20555;-79
2022/08/19 07:48:36;;;;;;;25.83;23.27;;;24.60;1.00;;;;;;5028093;28;20507;-77
2022/08/19 07:51:06;;;;;;;21.57;19.87;;;24.50;1.00;;;;;;5030399;28;20465;-77
2022/08/19 07:53:35;;;;;;;22.23;20.23;;;24.50;1.00;;;;;;5025413;28;20448;-78
2022/08/19 07:56:03;;;;;;;22.63;20.53;;;24.50;1.00;;;;;;5030160;28;20480;-82
2022/08/19 07:58:33;;;;;;;22.40;20.27;;;24.50;1.00;;;;;;5030194;28;20452;-78
2022/08/19 08:01:00;;;;;;;23.93;21.67;;;24.50;1.00;;;;;;5029155;28;20469;-77
2022/08/19 08:09:12;;;;;;;24.17;21.70;;;24.60;1.00;;;;;;5027726;28;20457;-78
2022/08/19 08:11:39;;;;;;;24.00;21.47;;;24.70;1.00;;;;;;5026164;28;20493;-77
2022/08/19 08:14:08;;;;;;;23.77;21.57;;;24.80;1.00;;;;;;5024924;28;20464;-83
2022/08/19 08:16:36;;;;;;;24.47;22.40;;;24.90;1.00;;;;;;5027642;28;26065;-78
2022/08/19 08:19:05;;;;;;;25.73;23.17;;;25.00;1.00;;;;;;5026989;28;20471;-77
2022/08/19 08:21:34;;;;;;;23.50;21.43;;;25.00;1.00;;;;;;5028184;28;20472;-77
2022/08/19 08:24:01;;;;;;;21.20;19.50;;;25.00;1.00;;;;;;5023975;28;20910;-81
2022/08/19 08:26:28;;;;;;;24.93;22.73;;;25.10;1.00;;;;;;5032246;28;20477;-82
2022/08/19 08:28:56;;;;;;;22.30;20.30;;;25.20;1.00;;;;;;5023044;28;20429;-79
2022/08/19 08:31:23;;;;;;;25.10;22.53;;;25.40;1.00;;;;;;5025103;28;20466;-78
2022/08/19 08:33:50;;;;;;;24.43;22.00;;;25.60;1.00;;;;;;5024114;28;20508;-80
2022/08/19 08:36:17;;;;;;;22.27;20.27;;;25.90;1.00;;;;;;5026411;28;20619;-80
2022/08/19 08:38:46;;;;;;;21.07;19.13;;;26.20;1.00;;;;;;5024993;28;20467;-80
2022/08/19 08:41:21;;;;;;;22.80;20.70;;;26.40;1.00;;;;;;5031962;28;20468;-81
2022/08/19 08:43:54;;;;;;;22.17;20.10;;;26.70;1.00;;;;;;5025885;28;20433;-81
2022/08/19 08:46:27;;;;;;;21.70;19.80;;;26.90;1.00;;;;;;5031233;28;20434;-80
2022/08/19 08:48:59;;;;;;;22.40;20.40;;;27.10;1.00;;;;;;5022636;28;20976;-81
2022/08/19 08:51:32;;;;;;;22.40;20.60;;;27.10;1.00;;;;;;5029539;28;20555;-84
2022/08/19 08:54:03;;;;;;;21.93;19.93;;;27.10;1.00;;;;;;5031971;28;20445;-83
2022/08/19 08:56:30;;;;;;;21.30;19.50;;;27.20;1.00;;;;;;5027246;28;21209;-84
2022/08/19 08:59:00;;;;;;;22.23;20.13;;;27.30;1.00;;;;;;5031223;28;20964;-83
2022/08/19 09:01:27;;;;;;;21.40;19.60;;;27.20;1.00;;;;;;5026933;28;20891;-81
2022/08/19 09:03:55;;;;;;;22.00;20.20;;;27.10;1.00;;;;;;5023370;28;20543;-81
2022/08/19 09:06:30;;;;;;;22.70;20.80;;;27.00;1.00;;;;;;5029851;28;20552;-80
2022/08/19 09:09:04;;;;;;;20.77;19.17;;;26.90;1.00;;;;;;5024149;28;21334;-81
2022/08/19 09:11:53;;;;;;;22.30;20.50;;;26.90;1.00;;;;;;5030731;28;20464;-81
2022/08/19 09:14:35;;;;;;;24.20;22.20;;;26.90;1.00;;;;;;5031008;28;20461;-80
2022/08/19 09:17:07;;;;;;;23.50;21.50;;;26.90;1.00;;;;;;5027534;28;20495;-81
2022/08/19 09:19:36;;;;;;;23.40;21.17;;;26.90;1.00;;;;;;5031333;28;20515;-80
2022/08/19 09:22:05;;;;;;;25.50;23.27;;;26.90;1.00;;;;;;5032539;28;21922;-81
2022/08/19 09:24:33;;;;;;;25.90;23.37;;;26.90;1.00;;;;;;5032252;28;20488;-81
2022/08/19 09:27:00;;;;;;;24.77;22.67;;;27.00;1.00;;;;;;5025549;28;20489;-81
2022/08/19 09:29:29;;;;;;;24.90;22.90;;;27.10;1.00;;;;;;5028170;28;20897;-81
2022/08/19 09:31:58;;;;;;;23.87;21.67;;;27.30;1.00;;;;;;5028459;28;20468;-81
2022/08/19 09:34:25;;;;;;;24.00;21.90;;;27.30;1.00;;;;;;5028230;28;20488;-83
2022/08/19 09:36:54;;;;;;;25.43;23.43;;;27.30;1.00;;;;;;5023722;28;20512;-82
2022/08/19 09:39:22;;;;;;;24.40;22.40;;;27.10;1.00;;;;;;5026212;28;20433;-82
2022/08/19 09:41:52;;;;;;;23.37;21.47;;;27.00;1.00;;;;;;5029373;28;20587;-81
2022/08/19 09:44:20;;;;;;;27.53;24.43;;;27.00;1.00;;;;;;5030220;28;20496;-81
2022/08/19 09:46:47;;;;;;;22.73;20.83;;;27.20;1.00;;;;;;5024724;28;20929;-81
2022/08/19 09:49:15;;;;;;;23.00;21.10;;;27.30;1.00;;;;;;5027555;28;20441;-82
2022/08/19 09:51:51;;;;;;;22.23;20.33;;;27.50;1.00;;;;;;5029068;28;20465;-81
2022/08/19 09:54:19;;;;;;;23.63;21.63;;;27.60;1.00;;;;;;5031185;28;20469;-81
2022/08/19 09:56:46;;;;;;;23.67;21.77;;;27.50;1.00;;;;;;5027147;28;20465;-81
2022/08/19 09:59:14;;;;;;;25.03;22.93;;;27.40;1.00;;;;;;5026548;28;20527;-81
2022/08/19 10:01:41;;;;;;;22.50;20.60;;;27.30;1.00;;;;;;5026245;28;20824;-81
2022/08/19 10:04:10;;;;;;;23.00;21.10;;;27.30;1.00;;;;;;5021696;28;20529;-80
2022/08/19 10:06:42;;;;;;;24.37;22.27;;;27.30;1.00;;;;;;5025405;28;20497;-82
2022/08/19 10:09:11;;;;;;;25.10;22.90;;;27.30;1.00;;;;;;5024276;28;20554;-80
2022/08/19 10:11:41;;;;;;;26.47;24.27;;;27.30;1.00;;;;;;5040209;28;21374;-81
2022/08/19 10:14:08;;;;;;;22.93;20.63;;;27.20;1.00;;;;;;5024473;28;20460;-80
2022/08/19 10:16:38;;;;;;;22.10;20.30;;;27.10;1.00;;;;;;5028111;28;20509;-79
2022/08/19 10:19:05;;;;;;;22.30;20.60;;;27.10;1.00;;;;;;5028138;28;20890;-79
2022/08/19 10:21:38;;;;;;;21.60;19.70;;;27.00;1.00;;;;;;5030039;28;20544;-79
2022/08/19 10:24:07;;;;;;;20.97;19.20;;;27.10;1.00;;;;;;5027658;28;20504;-79
2022/08/19 10:26:41;;;;;;;21.20;19.20;;;27.10;1.00;;;;;;5029663;28;20849;-80
2022/08/19 10:29:09;;;;;;;27.30;24.77;;;27.30;1.00;;;;;;5023821;28;20449;-80
2022/08/19 10:31:38;;;;;;;21.97;20.13;;;27.70;1.00;;;;;;5027813;28;20460;-80
2022/08/19 10:34:04;;;;;;;23.63;21.30;;;28.60;1.00;;;;;;5024575;28;20503;-79
2022/08/19 10:36:35;;;;;;;21.73;19.57;;;29.50;1.00;;;;;;5026316;28;20472;-80
2022/08/19 10:39:04;;;;;;;19.50;17.90;;;30.10;1.00;;;;;;5017096;28;20465;-81
2022/08/19 10:41:35;;;;;;;20.10;18.30;;;30.40;1.00;;;;;;5041220;28;20539;-80
2022/08/19 10:44:05;;;;;;;18.70;17.10;;;30.20;1.00;;;;;;5031307;28;20565;-79
2022/08/19 10:46:41;;;;;;;20.83;19.03;;;29.90;1.00;;;;;;5030451;28;20487;-78
2022/08/19 10:49:11;;;;;;;20.17;18.47;;;29.50;1.00;;;;;;5030605;28;20481;-80
2022/08/19 10:56:50;;;;;;;19.83;18.10;;;28.60;1.00;;;;;;5026758;28;20927;-80
2022/08/19 10:57:13;;;;;;;18.83;17.33;;;28.30;1.00;;;;;;5024383;28;20476;-81
2022/08/19 10:59:40;;;;;;;20.77;19.07;;;27.80;1.00;;;;;;5026649;28;20459;-81
2022/08/19 11:02:13;;;;;;;19.57;17.97;;;27.50;1.00;;;;;;5024293;28;20458;-80
2022/08/19 11:04:42;;;;;;;21.30;19.40;;;27.00;1.00;;;;;;5032144;28;20737;-81
2022/08/19 11:07:09;;;;;;;19.80;18.10;;;26.60;1.00;;;;;;5032243;28;20488;-81
2022/08/19 11:09:39;;;;;;;21.20;19.17;;;26.50;1.00;;;;;;5027183;28;21025;-81
2022/08/19 11:12:07;;;;;;;20.13;18.40;;;26.60;1.00;;;;;;5031765;28;20441;-81
2022/08/19 11:14:35;;;;;;;21.17;19.20;;;26.60;1.00;;;;;;5031062;28;20438;-80
2022/08/19 11:17:03;;;;;;;20.23;18.20;;;26.50;1.00;;;;;;5029686;28;20468;-82
2022/08/19 11:19:32;;;;;;;19.90;17.90;;;26.40;1.00;;;;;;5035680;28;20928;-83
2022/08/19 11:22:01;;;;;;;20.50;18.80;;;26.30;1.00;;;;;;5036292;28;20512;-83
2022/08/19 11:24:29;;;;;;;20.07;18.37;;;26.10;1.00;;;;;;5030499;28;20551;-82
2022/08/19 11:27:04;;;;;;;20.93;19.13;;;26.10;1.00;;;;;;5024775;28;20883;-83
2022/08/19 11:29:37;;;;;;;21.57;19.63;;;25.90;1.00;;;;;;5032761;28;20465;-82
2022/08/19 11:32:09;;;;;;;20.70;18.80;;;25.80;1.00;;;;;;5026060;28;20940;-83
2022/08/19 11:34:36;;;;;;;21.67;19.50;;;25.70;1.00;;;;;;5035275;28;20465;-82
2022/08/19 11:37:09;;;;;;;22.37;20.10;;;25.70;1.00;;;;;;5035275;28;20473;-82
2022/08/19 11:39:37;;;;;;;20.93;18.70;;;25.90;1.00;;;;;;5035481;28;20457;-83
2022/08/19 11:42:54;;;;;;;19.43;17.73;;;26.40;1.00;;;;;;5028572;28;21189;-81
2022/08/19 11:44:55;;;;;;;20.60;18.90;;;27.00;1.00;;;;;;5027698;28;20456;-81
2022/08/19 11:47:22;;;;;;;19.27;17.67;;;27.00;1.00;;;;;;5029558;28;20491;-81
2022/08/19 11:49:49;;;;;;;20.07;18.37;;;26.80;1.00;;;;;;5026174;28;20430;-81
2022/08/19 11:52:17;;;;;;;18.43;16.70;;;26.70;1.00;;;;;;5029982;28;20591;-81
2022/08/19 11:54:46;;;;;;;19.50;17.70;;;26.50;1.00;;;;;;5032036;28;20481;-81
2022/08/19 11:57:16;;;;;;;18.63;16.80;;;26.50;1.00;;;;;;5027097;28;20527;-81
2022/08/19 11:59:48;;;;;;;17.27;15.77;;;26.70;1.00;;;;;;5017067;28;20604;-81
2022/08/19 12:02:15;;;;;;;19.77;18.07;;;26.80;1.00;;;;;;5029168;28;20477;-82
2022/08/19 12:04:42;;;;;;;17.87;16.20;;;26.80;1.00;;;;;;5024376;28;20457;-81
2022/08/19 12:07:11;;;;;;;17.90;16.10;;;26.90;1.00;;;;;;5025606;28;20445;-81
2022/08/19 12:09:40;;;;;;;17.10;15.70;;;26.90;1.00;;;;;;5026187;28;20593;-82
2022/08/19 12:12:07;;;;;;;19.20;17.50;;;26.80;1.00;;;;;;5029473;28;21014;-81
2022/08/19 12:14:35;;;;;;;16.10;14.57;;;26.90;1.00;;;;;;5026427;28;20459;-82
2022/08/19 12:17:04;;;;;;;16.60;15.20;;;27.40;1.00;;;;;;5029892;28;20477;-81
2022/08/19 12:19:37;;;;;;;17.00;15.60;;;28.00;1.00;;;;;;5029493;28;20986;-82
2022/08/19 12:22:05;;;;;;;16.53;15.00;;;28.30;1.00;;;;;;5030175;28;22895;-80
2022/08/19 12:24:33;;;;;;;17.17;15.57;;;28.30;1.00;;;;;;5032130;28;20548;-81
2022/08/19 12:27:02;;;;;;;15.57;14.27;;;28.20;1.00;;;;;;5024406;28;20551;-82
2022/08/19 12:29:32;;;;;;;15.30;13.90;;;27.90;1.00;;;;;;5028811;28;20504;-81
2022/08/19 12:32:01;;;;;;;15.67;14.37;;;27.50;1.00;;;;;;5024275;28;20452;-81
2022/08/19 12:34:30;;;;;;;15.30;14.00;;;27.30;1.00;;;;;;5025153;28;21812;-81
2022/08/19 12:36:57;;;;;;;15.40;13.90;;;27.30;1.00;;;;;;5022179;28;20485;-81
2022/08/19 12:39:25;;;;;;;15.30;13.90;;;27.40;1.00;;;;;;5025934;28;20473;-81
2022/08/19 12:41:54;;;;;;;14.80;13.50;;;27.40;1.00;;;;;;5025458;28;20477;-82
2022/08/19 12:44:23;;;;;;;14.87;13.47;;;27.50;1.00;;;;;;5026539;28;20552;-81
2022/08/19 12:46:50;;;;;;;22.83;20.87;;;27.50;1.00;;;;;;5025259;28;20532;-81
2022/08/19 12:49:18;;;;;;;14.93;13.50;;;27.40;1.00;;;;;;5029673;28;20546;-81
2022/08/19 12:51:46;;;;;;;14.83;13.50;;;27.20;1.00;;;;;;5029257;28;20497;-81
2022/08/19 12:54:14;;;;;;;14.90;13.60;;;27.00;1.00;;;;;;5024123;28;20743;-81
2022/08/19 12:56:43;;;;;;;13.03;11.93;;;27.00;1.00;;;;;;5024483;28;20941;-81
2022/08/19 12:59:11;;;;;;;13.17;11.97;;;27.30;1.00;;;;;;5024609;28;20459;-81
2022/08/19 13:01:40;;;;;;;13.33;12.13;;;27.50;1.00;;;;;;5026757;28;20527;-81
2022/08/19 13:04:07;;;;;;;14.10;12.77;;;28.00;1.00;;;;;;5024067;28;20569;-81